Time;durP1;ratioP1;P1;durP2;ratioP2;P2;SDS_P1;SDS_P2;PMS_P1;PMS_P2;Temp;Humidity;BMP_temperature;BMP_pressure;BME280_temperature;BME280_humidity;BME280_pressure;Samples;Min_cycle;Max_cycle;Signal;HPM_P1;HPM_P2
2022/11/11 00:00:37;;;;;;;5.17;2.80;;;10.80;99.90;;;;;;5109970;28;20472;-70
2022/11/11 00:03:04;;;;;;;6.70;2.93;;;10.80;99.90;;;;;;5109855;28;20787;-69
2022/11/11 00:05:34;;;;;;;10.83;2.97;;;10.80;99.90;;;;;;5108903;28;20479;-70
2022/11/11 00:08:02;;;;;;;12.40;3.43;;;10.80;99.90;;;;;;5111029;28;20465;-70
2022/11/11 00:10:30;;;;;;;6.53;3.50;;;10.80;99.90;;;;;;5111789;28;20453;-70
2022/11/11 00:13:00;;;;;;;8.63;3.30;;;10.80;99.90;;;;;;5111321;28;20479;-68
2022/11/11 00:15:27;;;;;;;7.13;3.40;;;10.70;99.90;;;;;;5110617;28;20477;-69
2022/11/11 00:26:11;;;;;;;8.83;3.50;;;10.70;99.90;;;;;;5112010;28;20471;-69
2022/11/11 00:28:38;;;;;;;11.23;3.70;;;10.60;99.90;;;;;;5110588;28;20468;-69
2022/11/11 00:31:06;;;;;;;8.57;3.60;;;10.60;99.90;;;;;;5112722;28;20479;-70
2022/11/11 00:33:33;;;;;;;5.83;3.03;;;10.60;99.90;;;;;;5110805;28;20460;-70
2022/11/11 00:35:59;;;;;;;9.37;3.37;;;10.60;99.90;;;;;;5112736;28;20511;-69
2022/11/11 00:38:46;;;;;;;10.27;3.40;;;10.60;99.90;;;;;;5111226;28;20473;-70
2022/11/11 00:41:16;;;;;;;7.00;3.10;;;10.60;99.90;;;;;;5109404;28;20437;-70
2022/11/11 00:43:44;;;;;;;8.50;3.17;;;10.60;99.90;;;;;;5110778;28;20621;-69
2022/11/11 00:51:41;;;;;;;6.67;2.90;;;10.50;99.90;;;;;;5111724;28;20425;-69
2022/11/11 00:54:09;;;;;;;8.77;4.10;;;10.50;99.90;;;;;;5110993;28;20453;-69
2022/11/11 00:56:37;;;;;;;4.63;3.33;;;10.50;99.90;;;;;;5110493;28;20449;-69
2022/11/11 00:59:04;;;;;;;3.80;2.73;;;10.40;99.90;;;;;;5109514;28;20480;-70
2022/11/11 01:01:32;;;;;;;4.00;3.17;;;10.40;99.90;;;;;;5109799;28;20959;-69
2022/11/11 01:03:59;;;;;;;8.00;3.23;;;10.40;99.90;;;;;;5111583;28;20827;-70
2022/11/11 01:06:26;;;;;;;7.83;3.63;;;10.40;99.90;;;;;;5112739;28;20525;-70
2022/11/11 01:08:54;;;;;;;13.50;4.33;;;10.40;99.90;;;;;;5112614;28;20429;-70
2022/11/11 01:11:24;;;;;;;10.73;3.77;;;10.40;99.90;;;;;;5113581;28;20453;-70
2022/11/11 01:13:51;;;;;;;9.30;3.63;;;10.30;99.90;;;;;;5115166;28;20449;-68
2022/11/11 01:16:21;;;;;;;8.00;3.73;;;10.30;99.90;;;;;;5115652;28;20449;-69
2022/11/11 01:18:49;;;;;;;9.67;3.30;;;10.30;99.90;;;;;;5115316;28;20469;-70
2022/11/11 01:21:18;;;;;;;9.43;3.30;;;10.30;99.90;;;;;;5115526;28;20457;-69
2022/11/11 01:23:47;;;;;;;8.53;3.50;;;10.30;99.90;;;;;;5115808;28;20448;-69
2022/11/11 01:26:16;;;;;;;5.37;3.33;;;10.20;99.90;;;;;;5115927;28;20536;-70
2022/11/11 01:28:45;;;;;;;8.33;3.03;;;10.20;99.90;;;;;;5115832;28;20450;-69
2022/11/11 01:31:14;;;;;;;12.43;5.03;;;10.20;99.90;;;;;;5116496;28;20457;-70
2022/11/11 01:33:41;;;;;;;9.80;4.13;;;10.20;99.90;;;;;;5116476;28;20457;-69
2022/11/11 01:36:10;;;;;;;8.60;3.60;;;10.20;99.90;;;;;;5116151;28;20463;-69
2022/11/11 01:38:38;;;;;;;11.07;3.97;;;10.20;99.90;;;;;;5115500;28;20477;-69
2022/11/11 01:43:49;;;;;;;8.27;3.17;;;10.30;99.90;;;;;;5115679;28;20459;-70
2022/11/11 01:46:23;;;;;;;8.80;3.60;;;10.20;99.90;;;;;;5115698;28;20763;-70
2022/11/11 01:51:43;;;;;;;9.30;5.00;;;10.20;99.90;;;;;;5115965;28;20428;-69
2022/11/11 01:54:15;;;;;;;7.27;3.07;;;10.20;99.90;;;;;;5115782;28;20444;-69
2022/11/11 01:56:46;;;;;;;6.63;3.40;;;10.20;99.90;;;;;;5115279;28;20434;-69
2022/11/11 01:59:16;;;;;;;5.80;3.60;;;10.20;99.90;;;;;;5114550;28;20445;-69
2022/11/11 02:01:45;;;;;;;5.87;3.80;;;10.20;99.90;;;;;;5114405;28;20453;-69
2022/11/11 02:07:00;;;;;;;8.17;3.30;;;10.20;99.90;;;;;;5115322;28;20456;-69
2022/11/11 02:09:28;;;;;;;8.40;3.73;;;10.20;99.90;;;;;;5115660;28;20438;-69
2022/11/11 02:14:47;;;;;;;7.57;3.60;;;10.20;99.90;;;;;;5112750;28;20486;-70
2022/11/11 02:17:16;;;;;;;11.37;3.60;;;10.20;99.90;;;;;;5112733;28;20477;-69
2022/11/11 02:19:48;;;;;;;9.07;3.30;;;10.20;99.90;;;;;;5112354;28;20469;-70
2022/11/11 02:22:22;;;;;;;6.73;2.87;;;10.20;99.90;;;;;;5113667;28;20495;-69
2022/11/11 02:24:54;;;;;;;5.30;2.87;;;10.20;99.90;;;;;;5115910;28;20485;-69
2022/11/11 02:27:22;;;;;;;6.63;3.07;;;10.20;99.90;;;;;;5115572;28;20468;-69
2022/11/11 02:29:52;;;;;;;11.77;3.43;;;10.20;99.90;;;;;;5114864;28;20483;-68
2022/11/11 02:32:19;;;;;;;7.33;3.10;;;10.20;99.90;;;;;;5113090;28;20458;-69
2022/11/11 02:34:46;;;;;;;8.13;3.60;;;10.20;99.90;;;;;;5112130;28;20446;-69
2022/11/11 02:37:21;;;;;;;7.90;3.63;;;10.20;99.90;;;;;;5112384;28;20453;-69
2022/11/11 02:39:51;;;;;;;8.20;4.03;;;10.20;99.90;;;;;;5113207;28;20461;-69
2022/11/11 02:42:21;;;;;;;6.30;3.03;;;10.20;99.90;;;;;;5113916;28;20460;-69
2022/11/11 02:44:48;;;;;;;5.90;3.80;;;10.20;99.90;;;;;;5113526;28;20453;-69
2022/11/11 02:47:15;;;;;;;6.43;3.50;;;10.20;99.90;;;;;;5111886;28;20454;-69
2022/11/11 02:49:42;;;;;;;6.80;3.50;;;10.20;99.90;;;;;;5113259;28;20528;-69
2022/11/11 02:52:09;;;;;;;6.67;3.43;;;10.20;99.90;;;;;;5113928;28;20449;-69
2022/11/11 02:54:36;;;;;;;5.87;3.37;;;10.20;99.90;;;;;;5113371;28;20453;-69
2022/11/11 02:57:06;;;;;;;11.33;3.63;;;10.20;99.90;;;;;;5114587;28;20453;-69
2022/11/11 02:59:34;;;;;;;5.63;3.20;;;10.20;99.90;;;;;;5114173;28;20500;-69
2022/11/11 03:02:01;;;;;;;9.80;3.70;;;10.10;99.90;;;;;;5113701;28;20453;-69
2022/11/11 03:04:28;;;;;;;8.90;4.47;;;10.20;99.90;;;;;;5113232;28;20445;-69
2022/11/11 03:06:54;;;;;;;8.23;3.90;;;10.20;99.90;;;;;;5114056;28;20461;-69
2022/11/11 03:09:21;;;;;;;4.63;3.00;;;10.20;99.90;;;;;;5114602;28;20445;-69
2022/11/11 03:11:49;;;;;;;7.03;3.40;;;10.20;99.90;;;;;;5113661;28;20469;-68
2022/11/11 03:14:17;;;;;;;5.13;3.40;;;10.10;99.90;;;;;;5113417;28;20442;-69
2022/11/11 03:19:29;;;;;;;7.87;3.30;;;10.10;99.90;;;;;;5113201;28;20525;-69
2022/11/11 03:21:56;;;;;;;10.33;3.80;;;10.10;99.90;;;;;;5113351;28;20480;-69
2022/11/11 03:24:23;;;;;;;8.47;3.90;;;10.10;99.90;;;;;;5112145;28;20734;-69
2022/11/11 03:26:49;;;;;;;14.23;3.80;;;10.10;99.90;;;;;;5112712;28;20433;-68
2022/11/11 03:29:17;;;;;;;7.63;3.23;;;10.10;99.90;;;;;;5111355;28;20460;-69
2022/11/11 03:31:44;;;;;;;7.23;3.80;;;10.10;99.90;;;;;;5111777;28;20453;-70
2022/11/11 03:34:19;;;;;;;8.30;3.80;;;10.10;99.90;;;;;;5111152;28;20461;-68
2022/11/11 03:39:31;;;;;;;7.23;4.13;;;10.00;99.90;;;;;;5112867;28;20487;-68
2022/11/11 03:41:58;;;;;;;6.50;4.40;;;10.00;99.90;;;;;;5112404;28;20460;-68
2022/11/11 03:44:27;;;;;;;9.33;3.47;;;10.00;99.90;;;;;;5112763;28;20453;-68
2022/11/11 03:46:54;;;;;;;10.43;3.53;;;9.90;99.90;;;;;;5112621;28;20453;-69
2022/11/11 03:49:21;;;;;;;9.67;3.17;;;9.90;99.90;;;;;;5112760;28;20440;-69
2022/11/11 03:51:48;;;;;;;8.67;3.87;;;9.90;99.90;;;;;;5112658;28;20486;-69
2022/11/11 03:54:15;;;;;;;10.10;4.20;;;9.90;99.90;;;;;;5113752;28;20460;-69
2022/11/11 03:56:42;;;;;;;6.20;3.40;;;9.80;99.90;;;;;;5111246;28;20461;-69
2022/11/11 03:59:09;;;;;;;7.33;3.27;;;9.80;99.90;;;;;;5111990;28;20477;-69
2022/11/11 04:18:06;;;;;;;9.63;4.57;;;9.80;99.90;;;;;;5111815;28;20417;-69
2022/11/11 04:23:17;;;;;;;6.40;4.00;;;9.70;99.90;;;;;;5112414;28;20518;-68
2022/11/11 04:25:49;;;;;;;8.67;4.00;;;9.70;99.90;;;;;;5112578;28;20482;-68
2022/11/11 04:31:01;;;;;;;8.90;3.40;;;9.70;99.90;;;;;;5112108;28;20447;-69
2022/11/11 04:33:28;;;;;;;6.77;3.70;;;9.70;99.90;;;;;;5111342;28;20483;-69
2022/11/11 04:35:55;;;;;;;10.40;5.13;;;9.70;99.90;;;;;;5111687;28;20576;-68
2022/11/11 04:41:07;;;;;;;7.07;3.37;;;9.70;99.90;;;;;;5110167;28;20942;-69
2022/11/11 04:45:26;;;;;;;5.00;3.40;;;9.70;99.90;;;;;;5110437;28;20529;-68
2022/11/11 04:46:22;;;;;;;8.60;3.37;;;9.70;99.90;;;;;;5115237;28;20457;-69
2022/11/11 04:48:50;;;;;;;6.43;4.13;;;9.70;99.90;;;;;;5116223;28;20456;-69
2022/11/11 04:51:17;;;;;;;10.40;4.20;;;9.70;99.90;;;;;;5116593;28;20453;-69
2022/11/11 04:53:44;;;;;;;6.20;3.27;;;9.70;99.90;;;;;;5116846;28;20453;-69
2022/11/11 05:04:22;;;;;;;11.40;3.70;;;9.80;99.90;;;;;;5117408;28;20424;-69
2022/11/11 05:09:33;;;;;;;8.30;3.83;;;9.80;99.90;;;;;;5116569;28;20466;-68
2022/11/11 05:12:00;;;;;;;6.33;3.10;;;9.80;99.90;;;;;;5117098;28;20468;-68
2022/11/11 05:22:41;;;;;;;6.73;3.43;;;9.80;99.90;;;;;;5116094;28;20429;-69
2022/11/11 05:25:29;;;;;;;9.97;3.83;;;9.90;99.90;;;;;;5115598;28;20518;-69
2022/11/11 05:27:57;;;;;;;4.80;3.20;;;9.90;99.90;;;;;;5116382;28;20452;-68
2022/11/11 05:30:25;;;;;;;6.43;3.07;;;10.00;99.90;;;;;;5117269;28;20450;-69
2022/11/11 05:32:54;;;;;;;5.03;3.27;;;10.00;99.90;;;;;;5115975;28;20486;-69
2022/11/11 05:35:23;;;;;;;5.53;3.30;;;10.00;99.90;;;;;;5115653;28;20453;-68
2022/11/11 05:40:31;;;;;;;10.70;3.23;;;9.90;99.90;;;;;;5115106;28;20465;-69
2022/11/11 05:42:58;;;;;;;3.70;3.20;;;10.00;99.90;;;;;;5115737;28;20468;-69
2022/11/11 05:45:25;;;;;;;5.90;3.40;;;10.00;99.90;;;;;;5116025;28;20453;-69
2022/11/11 05:47:52;;;;;;;9.20;3.73;;;10.00;99.90;;;;;;5116566;28;20468;-69
2022/11/11 05:50:19;;;;;;;7.83;3.50;;;10.00;99.90;;;;;;5116429;28;20787;-70
2022/11/11 05:52:49;;;;;;;6.27;3.40;;;10.00;99.90;;;;;;5117156;28;20751;-69
2022/11/11 05:55:16;;;;;;;10.10;3.10;;;10.00;99.90;;;;;;5116581;28;20441;-70
2022/11/11 05:57:44;;;;;;;4.10;2.87;;;10.00;99.90;;;;;;5115854;28;20449;-69
2022/11/11 06:00:12;;;;;;;4.57;3.20;;;10.00;99.90;;;;;;5115475;28;20488;-69
2022/11/11 06:02:39;;;;;;;9.40;3.87;;;10.00;99.90;;;;;;5115913;28;20457;-70
2022/11/11 06:05:07;;;;;;;4.53;3.10;;;10.00;99.90;;;;;;5114121;28;20492;-68
2022/11/11 06:07:38;;;;;;;9.13;3.50;;;10.00;99.90;;;;;;5098633;28;20453;-67
2022/11/11 06:13:12;;;;;;;11.67;3.50;;;10.00;99.90;;;;;;5087890;28;20453;-67
2022/11/11 06:15:39;;;;;;;6.03;3.30;;;10.00;99.90;;;;;;5098802;28;20510;-68
2022/11/11 06:18:07;;;;;;;7.60;3.67;;;10.00;99.90;;;;;;5099811;28;20540;-66
2022/11/11 06:20:35;;;;;;;9.07;3.20;;;10.00;99.90;;;;;;5097909;28;20538;-67
2022/11/11 06:23:02;;;;;;;11.90;4.00;;;9.90;99.90;;;;;;5098608;28;20536;-67
2022/11/11 06:28:17;;;;;;;6.27;3.70;;;9.90;99.90;;;;;;5097517;28;20494;-67
2022/11/11 06:30:45;;;;;;;9.43;3.60;;;9.80;99.90;;;;;;5097970;28;20505;-67
2022/11/11 06:33:12;;;;;;;6.97;3.60;;;9.80;99.90;;;;;;5097446;28;20526;-67
2022/11/11 06:35:43;;;;;;;10.00;3.67;;;9.80;99.90;;;;;;5096970;28;20485;-66
2022/11/11 06:38:10;;;;;;;5.00;3.37;;;9.80;99.90;;;;;;5097586;28;20762;-67
2022/11/11 06:40:38;;;;;;;9.87;4.50;;;9.90;99.90;;;;;;5096514;28;20969;-65
2022/11/11 06:43:05;;;;;;;4.60;2.70;;;9.90;99.90;;;;;;5097324;28;20450;-68
2022/11/11 06:45:34;;;;;;;6.30;3.60;;;9.90;99.90;;;;;;5098077;28;20655;-67
2022/11/11 06:48:00;;;;;;;6.33;3.40;;;9.90;99.90;;;;;;5097185;28;20522;-67
2022/11/11 06:50:28;;;;;;;8.10;3.77;;;9.90;99.90;;;;;;5098876;28;20461;-67
2022/11/11 06:52:55;;;;;;;6.80;3.03;;;9.90;99.90;;;;;;5098697;28;20464;-67
2022/11/11 06:55:22;;;;;;;5.53;3.80;;;9.90;99.90;;;;;;5098284;28;20522;-67
2022/11/11 06:57:51;;;;;;;7.67;3.30;;;9.90;99.90;;;;;;5097420;28;20930;-65
2022/11/11 07:00:18;;;;;;;5.73;3.63;;;10.00;99.90;;;;;;5096832;28;20564;-67
2022/11/11 07:02:46;;;;;;;7.47;3.40;;;10.00;99.90;;;;;;5097572;28;20832;-66
2022/11/11 07:05:13;;;;;;;6.53;3.27;;;10.00;99.90;;;;;;5096825;28;20461;-67
2022/11/11 07:07:40;;;;;;;6.37;3.90;;;10.10;99.90;;;;;;5096619;28;20548;-67
2022/11/11 07:10:09;;;;;;;10.80;3.50;;;10.10;99.90;;;;;;5096938;28;20921;-66
2022/11/11 07:12:36;;;;;;;9.90;3.53;;;10.10;99.90;;;;;;5097879;28;20461;-67
2022/11/11 07:15:05;;;;;;;7.30;3.40;;;10.20;99.90;;;;;;5097013;28;20496;-66
2022/11/11 07:17:32;;;;;;;7.47;3.07;;;10.20;99.90;;;;;;5096954;28;20698;-67
2022/11/11 07:19:58;;;;;;;9.43;3.87;;;10.30;99.90;;;;;;5096793;28;20499;-66
2022/11/11 07:22:25;;;;;;;7.13;3.57;;;10.30;99.90;;;;;;5096830;28;20540;-67
2022/11/11 07:24:52;;;;;;;7.03;3.67;;;10.30;99.90;;;;;;5096420;28;20571;-67
2022/11/11 07:27:19;;;;;;;7.17;3.30;;;10.30;99.90;;;;;;5096766;28;20453;-68
2022/11/11 07:29:47;;;;;;;9.40;3.97;;;10.40;99.90;;;;;;5096242;28;20512;-67
2022/11/11 07:32:16;;;;;;;5.43;3.27;;;10.40;99.90;;;;;;5096076;28;20522;-67
2022/11/11 07:34:43;;;;;;;4.70;3.30;;;10.30;99.90;;;;;;5096419;28;20467;-67
2022/11/11 07:37:11;;;;;;;11.10;4.10;;;10.40;99.90;;;;;;5096372;28;20522;-66
2022/11/11 07:39:38;;;;;;;9.33;3.27;;;10.40;99.90;;;;;;5096894;28;20464;-68
2022/11/11 07:42:05;;;;;;;8.23;4.60;;;10.40;99.90;;;;;;5097230;28;20456;-67
2022/11/11 07:44:31;;;;;;;12.30;5.13;;;10.40;99.90;;;;;;5097103;28;20485;-67
2022/11/11 07:46:58;;;;;;;7.03;4.97;;;10.50;99.90;;;;;;5096870;28;20544;-67
2022/11/11 07:49:27;;;;;;;9.17;3.93;;;10.50;99.90;;;;;;5096479;28;20526;-68
2022/11/11 07:51:54;;;;;;;9.07;3.60;;;10.60;99.90;;;;;;5096024;28;20449;-68
2022/11/11 07:54:21;;;;;;;8.67;4.53;;;10.60;99.90;;;;;;5096301;28;20483;-68
2022/11/11 07:56:48;;;;;;;5.40;3.90;;;10.60;99.90;;;;;;5095672;28;20559;-68
2022/11/11 07:59:15;;;;;;;11.43;4.10;;;10.60;99.90;;;;;;5095947;28;20457;-71
2022/11/11 08:01:42;;;;;;;15.23;4.40;;;10.60;99.90;;;;;;5095811;28;20532;-69
2022/11/11 08:04:09;;;;;;;9.13;3.80;;;10.70;99.90;;;;;;5095750;28;20483;-68
2022/11/11 08:06:37;;;;;;;11.00;4.30;;;10.60;99.90;;;;;;5095822;28;20925;-68
2022/11/11 08:09:04;;;;;;;8.83;3.93;;;10.70;99.90;;;;;;5095898;28;20453;-67
2022/11/11 08:14:15;;;;;;;6.37;3.60;;;10.70;99.90;;;;;;5095874;28;20432;-68
2022/11/11 08:16:42;;;;;;;6.70;3.07;;;10.70;99.90;;;;;;5095795;28;20493;-69
2022/11/11 08:19:09;;;;;;;9.03;3.30;;;10.70;99.90;;;;;;5095818;28;20519;-66
2022/11/11 08:21:38;;;;;;;9.83;4.33;;;10.70;99.90;;;;;;5098601;28;20481;-68
2022/11/11 08:24:07;;;;;;;5.20;3.43;;;10.70;99.90;;;;;;5099747;28;20454;-68
2022/11/11 08:26:34;;;;;;;9.93;4.10;;;10.80;99.90;;;;;;5100102;28;20485;-69
2022/11/11 08:29:01;;;;;;;6.27;3.20;;;10.90;99.90;;;;;;5100134;28;20485;-67
2022/11/11 08:31:28;;;;;;;4.70;3.33;;;10.90;99.90;;;;;;5099647;28;20453;-68
2022/11/11 08:33:55;;;;;;;5.53;2.80;;;10.90;99.90;;;;;;5099763;28;20522;-68
2022/11/11 08:36:23;;;;;;;5.80;3.33;;;11.00;99.90;;;;;;5100030;28;20465;-69
2022/11/11 08:38:52;;;;;;;4.07;3.23;;;11.00;99.90;;;;;;5100037;28;20518;-68
2022/11/11 08:41:20;;;;;;;6.93;3.10;;;11.10;99.90;;;;;;5099710;28;20876;-67
2022/11/11 08:43:47;;;;;;;8.97;4.07;;;11.10;99.90;;;;;;5100180;28;20457;-69
2022/11/11 08:46:14;;;;;;;6.93;3.60;;;11.20;99.90;;;;;;5099841;28;20465;-68
2022/11/11 08:48:41;;;;;;;4.83;3.40;;;11.30;99.90;;;;;;5099323;28;20461;-68
2022/11/11 08:51:08;;;;;;;4.97;2.83;;;11.40;99.90;;;;;;5099653;28;20544;-67
2022/11/11 08:53:35;;;;;;;5.80;3.90;;;11.50;99.90;;;;;;5100198;28;20560;-67
2022/11/11 08:56:04;;;;;;;5.13;3.10;;;11.60;99.90;;;;;;5099615;28;20910;-68
2022/11/11 08:58:31;;;;;;;5.30;3.40;;;11.70;99.90;;;;;;5099789;28;20483;-67
2022/11/11 09:01:00;;;;;;;8.07;3.30;;;11.80;99.90;;;;;;5099793;28;20798;-69
2022/11/11 09:03:29;;;;;;;7.20;3.33;;;11.80;99.90;;;;;;5100020;28;20540;-67
2022/11/11 09:05:56;;;;;;;5.03;3.10;;;11.90;99.90;;;;;;5099499;28;20554;-67
2022/11/11 09:08:23;;;;;;;9.73;3.80;;;12.00;99.90;;;;;;5099964;28;20548;-66
2022/11/11 09:10:50;;;;;;;6.17;3.23;;;12.00;99.90;;;;;;5098938;28;20485;-68
2022/11/11 09:13:18;;;;;;;9.03;3.07;;;12.00;99.90;;;;;;5098989;28;20496;-67
2022/11/11 09:15:45;;;;;;;5.83;2.83;;;12.10;99.90;;;;;;5098620;28;20842;-67
2022/11/11 09:18:12;;;;;;;8.73;3.53;;;12.10;99.90;;;;;;5098598;28;20485;-68
2022/11/11 09:20:39;;;;;;;8.90;3.47;;;12.20;99.90;;;;;;5098360;28;20925;-66
2022/11/11 09:23:06;;;;;;;5.10;3.30;;;12.20;99.90;;;;;;5098273;28;20456;-67
2022/11/11 09:25:32;;;;;;;5.13;2.80;;;12.20;99.90;;;;;;5098264;28;20517;-67
2022/11/11 09:28:01;;;;;;;8.67;2.93;;;12.20;99.90;;;;;;5098827;28;20526;-67
2022/11/11 09:30:30;;;;;;;5.27;3.37;;;12.20;99.90;;;;;;5098477;28;20457;-68
2022/11/11 09:33:01;;;;;;;8.00;3.70;;;12.20;99.90;;;;;;5098003;28;20461;-68
2022/11/11 09:35:28;;;;;;;5.77;3.17;;;12.20;99.90;;;;;;5098832;28;20469;-67
2022/11/11 09:37:58;;;;;;;4.10;3.27;;;12.20;99.90;;;;;;5098725;28;20532;-69
2022/11/11 09:40:32;;;;;;;4.33;2.80;;;12.20;99.90;;;;;;5099128;28;20477;-67
2022/11/11 09:43:09;;;;;;;8.10;3.37;;;12.20;99.90;;;;;;5098332;28;20972;-66
2022/11/11 09:45:48;;;;;;;9.63;3.03;;;12.20;99.90;;;;;;5098473;28;20445;-67
2022/11/11 09:48:38;;;;;;;6.57;3.53;;;12.30;99.90;;;;;;5099225;28;20520;-66
2022/11/11 09:51:09;;;;;;;7.50;3.40;;;12.30;99.90;;;;;;5098741;28;20434;-67
2022/11/11 09:53:40;;;;;;;10.30;6.40;;;12.40;99.90;;;;;;5098366;28;20812;-66
2022/11/11 09:56:09;;;;;;;6.93;3.10;;;12.40;99.90;;;;;;5098359;28;20528;-68
2022/11/11 09:58:39;;;;;;;5.20;3.17;;;12.50;99.90;;;;;;5098051;28;20514;-66
2022/11/11 10:01:12;;;;;;;5.00;3.00;;;12.60;99.90;;;;;;5098682;28;20534;-67
2022/11/11 10:03:44;;;;;;;10.33;3.00;;;12.70;99.90;;;;;;5098378;28;20854;-66
2022/11/11 10:06:17;;;;;;;4.57;3.73;;;12.70;99.90;;;;;;5099450;28;20502;-68
2022/11/11 10:08:50;;;;;;;4.67;3.00;;;12.80;99.90;;;;;;5098472;28;20935;-68
2022/11/11 10:11:25;;;;;;;4.63;2.80;;;12.80;99.90;;;;;;5098014;28;20525;-67
2022/11/11 10:13:55;;;;;;;5.23;2.73;;;12.90;99.90;;;;;;5098438;28;20442;-67
2022/11/11 10:16:31;;;;;;;5.53;3.03;;;12.90;99.90;;;;;;5099730;28;20453;-66
2022/11/11 10:19:16;;;;;;;7.43;2.97;;;12.90;99.90;;;;;;5097727;28;20441;-66
2022/11/11 10:21:49;;;;;;;4.27;2.70;;;13.00;99.90;;;;;;5097559;28;20501;-67
2022/11/11 10:24:22;;;;;;;17.27;3.47;;;13.00;99.90;;;;;;5097104;28;20511;-66
2022/11/11 10:26:49;;;;;;;4.40;3.10;;;13.00;99.90;;;;;;5098121;28;20751;-67
2022/11/11 10:29:19;;;;;;;7.70;3.43;;;13.00;99.90;;;;;;5097552;28;20449;-66
2022/11/11 10:31:57;;;;;;;3.87;3.00;;;13.10;99.90;;;;;;5097297;28;20430;-67
2022/11/11 10:34:29;;;;;;;7.70;3.30;;;13.10;99.90;;;;;;5097939;28;20476;-67
2022/11/11 10:36:58;;;;;;;18.47;4.87;;;13.20;99.90;;;;;;5097376;28;20502;-67
2022/11/11 10:39:34;;;;;;;6.40;3.00;;;13.20;99.90;;;;;;5097548;28;20532;-68
2022/11/11 10:42:01;;;;;;;4.90;3.33;;;13.20;99.90;;;;;;5097776;28;20929;-66
2022/11/11 10:44:31;;;;;;;6.30;3.30;;;13.20;99.90;;;;;;5096588;28;20457;-67
2022/11/11 10:47:05;;;;;;;3.50;2.73;;;13.20;99.90;;;;;;5097013;28;20531;-68
2022/11/11 10:49:35;;;;;;;5.87;2.97;;;13.20;99.90;;;;;;5096947;28;20544;-69
2022/11/11 10:52:06;;;;;;;5.27;2.80;;;13.30;99.90;;;;;;5096844;28;20438;-68
2022/11/11 10:54:38;;;;;;;7.23;3.33;;;13.30;99.90;;;;;;5097045;28;20506;-68
2022/11/11 10:57:11;;;;;;;8.00;2.97;;;13.40;99.90;;;;;;5096883;28;20453;-69
2022/11/11 10:59:45;;;;;;;6.10;2.80;;;13.40;99.90;;;;;;5096355;28;20453;-67
2022/11/11 11:02:20;;;;;;;13.93;2.53;;;13.40;99.90;;;;;;5096317;28;20510;-67
2022/11/11 11:04:52;;;;;;;4.90;2.33;;;13.40;99.90;;;;;;5097125;28;20555;-68
2022/11/11 11:07:24;;;;;;;6.33;3.20;;;13.40;99.90;;;;;;5096563;28;20525;-66
2022/11/11 11:09:55;;;;;;;7.30;3.20;;;13.50;99.90;;;;;;5096401;28;20600;-68
2022/11/11 11:12:29;;;;;;;4.83;2.70;;;13.50;99.90;;;;;;5096682;28;20433;-68
2022/11/11 11:15:02;;;;;;;3.60;2.00;;;13.60;99.90;;;;;;5096657;28;20635;-66
2022/11/11 11:17:36;;;;;;;7.00;2.80;;;13.70;99.90;;;;;;5096947;28;20437;-67
2022/11/11 11:20:13;;;;;;;7.50;2.40;;;13.70;99.90;;;;;;5096675;28;20442;-67
2022/11/11 11:22:49;;;;;;;5.90;2.67;;;13.70;99.90;;;;;;5096022;28;20488;-68
2022/11/11 11:25:17;;;;;;;3.30;2.03;;;13.70;99.90;;;;;;5096485;28;20485;-69
2022/11/11 11:27:45;;;;;;;4.33;1.93;;;13.70;99.90;;;;;;5096897;28;20847;-71
2022/11/11 11:30:14;;;;;;;3.20;1.80;;;13.70;99.90;;;;;;5097171;28;20464;-68
2022/11/11 11:32:57;;;;;;;3.37;1.80;;;13.70;99.90;;;;;;5096914;28;20422;-66
2022/11/11 11:35:36;;;;;;;6.23;2.50;;;13.80;99.90;;;;;;5097451;28;20469;-68
2022/11/11 11:38:03;;;;;;;3.87;2.47;;;13.90;99.90;;;;;;5097256;28;20886;-67
2022/11/11 11:40:46;;;;;;;6.27;2.90;;;13.90;99.90;;;;;;5097890;28;20788;-68
2022/11/11 11:43:26;;;;;;;7.83;2.33;;;13.90;99.90;;;;;;5098202;28;20430;-69
2022/11/11 11:45:58;;;;;;;4.47;2.63;;;14.00;99.90;;;;;;5097970;28;20433;-68
2022/11/11 11:48:40;;;;;;;6.37;2.17;;;14.10;99.90;;;;;;5098284;28;20635;-67
2022/11/11 11:51:20;;;;;;;4.43;1.87;;;14.30;99.90;;;;;;5098648;28;20889;-67
2022/11/11 11:54:02;;;;;;;4.30;2.20;;;14.50;99.90;;;;;;5097605;28;20776;-68
2022/11/11 11:56:37;;;;;;;6.93;2.60;;;14.60;99.90;;;;;;5098255;28;20514;-67
2022/11/11 11:59:11;;;;;;;4.50;1.60;;;14.80;99.90;;;;;;5097367;28;20433;-68
2022/11/11 12:01:50;;;;;;;2.77;1.63;;;14.90;99.90;;;;;;5097085;28;20508;-71
2022/11/11 12:04:34;;;;;;;4.70;1.87;;;15.00;99.90;;;;;;5097366;28;20502;-68
2022/11/11 12:07:12;;;;;;;2.57;1.87;;;14.90;99.90;;;;;;5097031;28;20529;-67
2022/11/11 12:09:52;;;;;;;6.33;2.20;;;14.90;99.90;;;;;;5096744;28;20485;-66
2022/11/11 12:12:29;;;;;;;2.27;2.07;;;15.00;99.90;;;;;;5096649;28;20545;-67
2022/11/11 12:15:06;;;;;;;6.43;2.30;;;15.10;99.90;;;;;;5096889;28;20511;-67
2022/11/11 12:17:42;;;;;;;4.10;2.10;;;15.10;99.90;;;;;;5097482;28;20489;-68
2022/11/11 12:20:19;;;;;;;4.77;2.23;;;15.10;99.90;;;;;;5096950;28;20476;-70
2022/11/11 12:23:11;;;;;;;2.43;1.60;;;15.10;99.90;;;;;;5097324;28;20473;-66
2022/11/11 12:25:50;;;;;;;2.70;1.80;;;15.00;99.90;;;;;;5065396;28;20978;-68
2022/11/11 12:28:33;;;;;;;4.23;2.00;;;15.00;99.90;;;;;;5096447;28;20448;-68
2022/11/11 12:31:10;;;;;;;2.00;1.50;;;15.10;99.90;;;;;;5096228;28;20471;-71
2022/11/11 12:33:59;;;;;;;4.83;1.77;;;15.20;99.90;;;;;;5097523;28;20470;-70
2022/11/11 12:36:35;;;;;;;2.70;1.77;;;15.30;99.90;;;;;;5097045;28;20438;-69
2022/11/11 12:39:07;;;;;;;2.30;1.60;;;15.50;99.90;;;;;;5096026;28;20502;-66
2022/11/11 12:42:02;;;;;;;3.00;1.87;;;15.50;99.90;;;;;;5096217;28;20873;-69
2022/11/11 12:44:39;;;;;;;5.50;1.70;;;15.30;99.90;;;;;;5093910;28;20457;-70
2022/11/11 12:47:23;;;;;;;3.50;1.73;;;15.50;99.90;;;;;;5096740;28;20490;-67
2022/11/11 12:49:57;;;;;;;3.23;1.57;;;15.70;99.90;;;;;;5096789;28;20477;-68
2022/11/11 12:52:42;;;;;;;4.53;1.67;;;15.80;99.90;;;;;;5096204;28;20445;-67
2022/11/11 12:55:23;;;;;;;10.90;1.70;;;15.80;99.90;;;;;;5096494;28;20466;-68
2022/11/11 12:58:05;;;;;;;4.33;1.80;;;15.90;99.90;;;;;;5095962;28;20476;-69
2022/11/11 13:00:33;;;;;;;2.20;1.53;;;16.00;99.90;;;;;;5097108;28;20448;-68
2022/11/11 13:03:22;;;;;;;2.80;1.97;;;16.00;99.90;;;;;;5096175;28;20516;-67
2022/11/11 13:05:57;;;;;;;3.73;1.80;;;16.10;99.90;;;;;;5093742;28;20549;-68
2022/11/11 13:08:52;;;;;;;3.60;1.60;;;16.10;99.90;;;;;;5099455;28;20874;-68
2022/11/11 13:11:26;;;;;;;6.23;1.70;;;16.10;99.90;;;;;;5099893;28;20954;-67
2022/11/11 13:14:03;;;;;;;4.70;2.40;;;16.10;99.90;;;;;;5100342;28;20469;-68
2022/11/11 13:16:30;;;;;;;3.43;2.10;;;16.00;99.90;;;;;;5099587;28;20442;-68
2022/11/11 13:19:00;;;;;;;2.90;2.50;;;15.80;99.90;;;;;;5100077;28;20470;-67
2022/11/11 13:21:35;;;;;;;4.67;2.00;;;15.70;99.90;;;;;;5099397;28;20485;-67
2022/11/11 13:24:04;;;;;;;3.60;2.27;;;15.60;99.90;;;;;;5099846;28;20505;-67
2022/11/11 13:26:37;;;;;;;4.00;1.63;;;15.30;99.90;;;;;;5099273;28;20629;-67
2022/11/11 13:29:38;;;;;;;3.50;1.73;;;15.10;99.90;;;;;;5099232;28;20437;-66
2022/11/11 13:32:10;;;;;;;4.67;1.67;;;15.10;99.90;;;;;;5099313;28;20461;-68
2022/11/11 13:34:38;;;;;;;2.90;1.60;;;15.00;99.90;;;;;;5099485;28;20514;-68
2022/11/11 13:37:08;;;;;;;3.30;1.97;;;15.00;99.90;;;;;;5098841;28;20457;-68
2022/11/11 13:39:41;;;;;;;5.00;1.90;;;14.90;99.90;;;;;;5099602;28;20449;-67
2022/11/11 13:42:13;;;;;;;5.07;1.77;;;14.90;99.90;;;;;;5098563;28;20799;-66
2022/11/11 13:44:50;;;;;;;2.93;1.90;;;14.90;99.90;;;;;;5098463;28;20438;-68
2022/11/11 13:47:20;;;;;;;2.00;1.60;;;14.80;99.90;;;;;;5098195;28;20441;-68
2022/11/11 13:49:53;;;;;;;4.00;1.90;;;14.80;99.90;;;;;;5098886;28;20481;-67
2022/11/11 13:52:23;;;;;;;2.77;1.73;;;14.70;99.90;;;;;;5098442;28;20537;-68
2022/11/11 13:54:58;;;;;;;2.70;1.70;;;14.70;99.90;;;;;;5098441;28;20545;-66
2022/11/11 13:57:28;;;;;;;26.10;5.07;;;14.70;99.90;;;;;;5098719;28;20780;-66
2022/11/11 13:59:59;;;;;;;6.00;2.03;;;14.70;99.90;;;;;;5098311;28;20469;-67
2022/11/11 14:02:36;;;;;;;2.57;2.20;;;14.70;99.90;;;;;;5097881;28;20512;-66
2022/11/11 14:05:21;;;;;;;3.50;1.60;;;14.70;99.90;;;;;;5098565;28;20477;-67
2022/11/11 14:07:56;;;;;;;2.10;1.57;;;14.60;99.90;;;;;;5097698;28;20524;-66
2022/11/11 14:10:53;;;;;;;2.73;1.60;;;14.60;99.90;;;;;;5097920;28;20441;-67
2022/11/11 14:13:40;;;;;;;3.60;1.60;;;14.50;99.90;;;;;;5085194;28;20477;-67
2022/11/11 14:16:34;;;;;;;4.90;1.83;;;14.50;99.90;;;;;;5097902;28;20477;-67
2022/11/11 14:19:28;;;;;;;3.23;1.67;;;14.50;99.90;;;;;;5096648;28;20756;-67
2022/11/11 14:21:56;;;;;;;3.37;1.50;;;14.50;99.90;;;;;;5098015;28;20481;-68
2022/11/11 14:24:26;;;;;;;4.33;1.50;;;14.50;99.90;;;;;;5097530;28;20461;-67
2022/11/11 14:27:02;;;;;;;7.67;1.70;;;14.50;99.90;;;;;;5097901;28;20488;-67
2022/11/11 14:29:33;;;;;;;2.20;1.60;;;14.50;99.90;;;;;;5098282;28;20460;-67
2022/11/11 14:32:34;;;;;;;3.60;1.90;;;14.50;99.90;;;;;;5097826;28;20469;-69